Time;durP1;ratioP1;P1;durP2;ratioP2;P2;SDS_P1;SDS_P2;PMS_P1;PMS_P2;Temp;Humidity;BMP_temperature;BMP_pressure;BME280_temperature;BME280_humidity;BME280_pressure;Samples;Min_cycle;Max_cycle;Signal;HPM_P1;HPM_P2
2023/03/20 00:00:36;;;;;;;14.30;5.47;;;;;;;13.83;100.00;101391.97;2093648;28;20053;-73
2023/03/20 00:01:58;;;;;;;19.60;6.35;;;;;;;13.83;100.00;101380.47;2079392;28;20069;-73
2023/03/20 00:03:21;;;;;;;13.60;5.13;;;;;;;13.83;100.00;101376.03;2091292;28;20136;-73
2023/03/20 00:04:42;;;;;;;14.85;5.43;;;;;;;13.84;100.00;101356.59;2093186;28;20045;-73
2023/03/20 00:06:04;;;;;;;16.88;5.28;;;;;;;13.84;100.00;101379.59;2084905;28;20555;-73
2023/03/20 00:07:26;;;;;;;17.20;5.85;;;;;;;13.84;100.00;101382.25;2091649;28;20421;-74
2023/03/20 00:08:50;;;;;;;16.70;6.20;;;;;;;13.85;100.00;101390.19;2092598;28;20384;-73
2023/03/20 00:10:11;;;;;;;21.92;6.00;;;;;;;13.87;100.00;101403.50;2085477;28;20429;-73
2023/03/20 00:11:40;;;;;;;17.25;6.03;;;;;;;13.88;100.00;101400.88;2091411;28;20555;-73
2023/03/20 00:13:05;;;;;;;16.33;6.10;;;;;;;13.87;100.00;101398.19;2080551;28;20147;-73
2023/03/20 00:14:26;;;;;;;21.08;7.30;;;;;;;13.89;100.00;101407.06;2086935;28;20503;-73
2023/03/20 00:15:49;;;;;;;18.65;6.03;;;;;;;13.89;100.00;101409.72;2075182;28;20064;-73
2023/03/20 00:17:16;;;;;;;17.55;5.70;;;;;;;13.89;100.00;101409.72;2090904;28;20052;-73
2023/03/20 00:18:40;;;;;;;15.10;6.18;;;;;;;13.90;100.00;101409.75;2094246;28;20040;-73
2023/03/20 00:20:02;;;;;;;15.48;6.32;;;;;;;13.90;100.00;101408.84;2087540;28;20045;-73
2023/03/20 00:21:25;;;;;;;12.85;5.38;;;;;;;13.90;100.00;101411.50;2099496;28;20093;-73
2023/03/20 00:22:46;;;;;;;13.18;7.03;;;;;;;13.91;100.00;101411.50;2086306;28;20427;-73
2023/03/20 00:24:08;;;;;;;12.55;5.78;;;;;;;13.92;100.00;101402.69;2091132;28;20489;-73
2023/03/20 00:25:31;;;;;;;15.77;5.25;;;;;;;13.94;100.00;101408.00;2085178;28;20052;-73
2023/03/20 00:26:54;;;;;;;16.55;5.78;;;;;;;13.90;100.00;101407.09;2083032;28;20041;-73
2023/03/20 00:28:39;;;;;;;12.77;6.20;;;;;;;13.92;100.00;101407.09;2090446;28;20564;-73
2023/03/20 00:30:01;;;;;;;12.52;4.57;;;;;;;13.90;100.00;101408.84;2087783;28;20041;-73
2023/03/20 00:31:25;;;;;;;14.18;5.10;;;;;;;13.90;100.00;101400.91;2082768;28;20723;-73
2023/03/20 00:32:47;;;;;;;13.68;4.90;;;;;;;13.89;100.00;101407.97;2085888;28;20048;-73
2023/03/20 00:34:13;;;;;;;11.38;4.40;;;;;;;13.90;100.00;101399.13;2090997;28;20390;-73
2023/03/20 00:35:35;;;;;;;11.02;4.70;;;;;;;13.91;100.00;101405.34;2100767;28;20040;-72
2023/03/20 00:36:57;;;;;;;15.65;5.15;;;;;;;13.92;100.00;101389.41;2095914;28;20044;-73
2023/03/20 00:38:19;;;;;;;11.02;4.57;;;;;;;13.91;100.00;101392.06;2087885;28;20048;-73
2023/03/20 00:39:42;;;;;;;8.35;4.32;;;;;;;13.90;100.00;101374.34;2085469;28;20048;-72
2023/03/20 00:41:20;;;;;;;12.73;4.78;;;;;;;13.89;100.00;101376.13;2091240;28;20041;-72
2023/03/20 00:42:47;;;;;;;11.10;5.05;;;;;;;13.87;100.00;101375.19;2079312;28;20053;-73
2023/03/20 00:44:20;;;;;;;11.07;4.50;;;;;;;13.86;100.00;101368.09;2099592;28;20044;-73
2023/03/20 00:45:45;;;;;;;9.80;4.63;;;;;;;13.85;100.00;101368.06;2088998;28;20449;-73
2023/03/20 00:47:15;;;;;;;16.17;4.97;;;;;;;13.86;100.00;101368.09;2094075;28;20131;-73
2023/03/20 00:48:39;;;;;;;9.38;4.97;;;;;;;13.90;100.00;101371.69;2079746;28;20049;-73
2023/03/20 00:50:00;;;;;;;14.63;5.47;;;;;;;13.91;100.00;101360.22;2098267;28;20051;-73
2023/03/20 00:51:22;;;;;;;13.00;5.35;;;;;;;13.90;100.00;101369.94;2102924;28;20261;-73
2023/03/20 00:52:44;;;;;;;12.75;5.07;;;;;;;13.91;100.00;101377.00;2100392;28;20052;-73
2023/03/20 00:54:13;;;;;;;10.57;4.97;;;;;;;13.92;100.00;101369.94;2095849;28;20115;-74
2023/03/20 00:55:36;;;;;;;11.27;5.40;;;;;;;13.91;100.00;101368.19;2093356;28;20094;-74
2023/03/20 00:57:01;;;;;;;12.43;4.68;;;;;;;13.91;100.00;101365.53;2085390;28;20045;-75
2023/03/20 00:58:25;;;;;;;10.15;5.30;;;;;;;13.91;100.00;101368.19;2090542;28;20048;-74
2023/03/20 00:59:52;;;;;;;13.10;5.90;;;;;;;13.90;100.00;101366.41;2092802;28;20037;-73
2023/03/20 01:01:15;;;;;;;16.85;5.70;;;;;;;13.89;100.00;101365.50;2094396;28;20107;-75
2023/03/20 01:02:36;;;;;;;13.02;5.22;;;;;;;13.90;100.00;101363.75;2086376;28;20040;-74
2023/03/20 01:03:59;;;;;;;10.73;4.55;;;;;;;13.91;100.00;101346.94;2082823;28;20061;-74
2023/03/20 01:05:20;;;;;;;10.70;5.13;;;;;;;13.91;100.00;101365.53;2077027;28;20045;-74
2023/03/20 01:06:42;;;;;;;13.10;5.03;;;;;;;13.91;100.00;101368.19;2074650;28;20050;-74
2023/03/20 01:08:13;;;;;;;12.80;5.53;;;;;;;13.92;100.00;101364.63;2089220;28;20059;-74
2023/03/20 01:09:36;;;;;;;9.57;4.85;;;;;;;13.91;100.00;101366.38;2091970;28;20044;-74
2023/03/20 01:10:58;;;;;;;12.52;5.07;;;;;;;13.90;100.00;101343.41;2095342;28;20090;-74
2023/03/20 01:12:20;;;;;;;14.05;5.57;;;;;;;13.90;100.00;101363.75;2085522;28;20501;-74
2023/03/20 01:13:44;;;;;;;13.52;5.32;;;;;;;13.89;100.00;101361.94;2082420;28;20044;-74
2023/03/20 01:15:15;;;;;;;15.40;5.38;;;;;;;13.89;100.00;101354.88;2087133;28;20573;-74
2023/03/20 01:16:38;;;;;;;12.68;5.90;;;;;;;13.89;100.00;101343.38;2084695;28;20073;-74
2023/03/20 01:18:13;;;;;;;14.90;5.70;;;;;;;13.90;100.00;101338.09;2110601;27;20402;-72
2023/03/20 01:19:36;;;;;;;11.93;5.25;;;;;;;13.91;100.00;101344.28;2111414;28;20098;-72
2023/03/20 01:20:57;;;;;;;13.50;6.15;;;;;;;13.89;100.00;101327.44;2101243;28;20048;-72
2023/03/20 01:22:20;;;;;;;11.68;5.75;;;;;;;13.89;100.00;101332.75;2108850;28;20052;-72
2023/03/20 01:23:41;;;;;;;15.43;5.75;;;;;;;13.87;100.00;101334.50;2101866;28;20040;-75
2023/03/20 01:25:04;;;;;;;15.45;5.95;;;;;;;13.87;100.00;101334.50;2100206;28;20496;-74
2023/03/20 01:26:30;;;;;;;12.18;5.22;;;;;;;13.83;100.00;101341.53;2107656;28;20082;-75
2023/03/20 01:27:56;;;;;;;16.23;6.40;;;;;;;13.79;100.00;101336.16;2094921;28;20053;-75
2023/03/20 01:29:20;;;;;;;13.35;5.40;;;;;;;13.76;100.00;101339.69;2090970;28;20124;-75
2023/03/20 01:30:44;;;;;;;14.23;5.78;;;;;;;13.71;100.00;101332.56;2105741;28;20047;-74
2023/03/20 01:32:11;;;;;;;11.70;5.45;;;;;;;13.69;100.00;101324.56;2088688;28;20044;-75
2023/03/20 01:33:35;;;;;;;16.27;5.30;;;;;;;13.63;100.00;101335.09;2089241;28;20049;-75
2023/03/20 01:34:58;;;;;;;14.73;7.28;;;;;;;13.61;100.00;101342.16;2109332;28;20036;-75
2023/03/20 01:36:24;;;;;;;17.00;6.95;;;;;;;13.59;100.00;101358.94;2095179;28;20480;-75
2023/03/20 01:37:45;;;;;;;15.10;5.57;;;;;;;13.55;100.00;101347.38;2098985;28;20044;-74
2023/03/20 01:39:10;;;;;;;12.02;5.72;;;;;;;13.52;100.00;101348.22;2094599;28;20045;-74
2023/03/20 01:40:36;;;;;;;15.75;5.28;;;;;;;13.55;100.00;101353.56;2098679;28;20565;-74
2023/03/20 01:41:59;;;;;;;13.90;5.63;;;;;;;13.59;100.00;101349.19;2101488;28;20058;-75
2023/03/20 01:43:26;;;;;;;15.20;6.80;;;;;;;13.64;100.00;101347.50;2096174;28;20051;-75
2023/03/20 01:44:47;;;;;;;15.70;5.78;;;;;;;13.65;100.00;101353.72;2080929;28;20441;-75
2023/03/20 01:46:18;;;;;;;15.80;6.38;;;;;;;13.67;100.00;101351.94;2106520;28;20036;-75
2023/03/20 01:47:41;;;;;;;13.43;5.43;;;;;;;13.68;100.00;101336.03;2087742;28;20075;-74
2023/03/20 01:49:30;;;;;;;10.57;5.45;;;;;;;13.71;100.00;101359.97;2098770;28;20036;-74
2023/03/20 01:50:57;;;;;;;14.93;4.75;;;;;;;13.72;100.00;101347.59;2094436;28;20062;-74
2023/03/20 01:52:20;;;;;;;14.85;6.18;;;;;;;13.74;100.00;101348.50;2115113;28;20043;-74
2023/03/20 01:53:43;;;;;;;13.90;6.07;;;;;;;13.77;100.00;101343.25;2095687;28;20036;-74
2023/03/20 01:55:05;;;;;;;16.42;5.32;;;;;;;13.79;100.00;101349.44;2090206;28;20068;-73
2023/03/20 01:56:33;;;;;;;14.43;5.70;;;;;;;13.81;100.00;101348.59;2117410;28;20053;-73
2023/03/20 01:57:58;;;;;;;11.82;5.05;;;;;;;13.81;100.00;101348.59;2094779;28;20252;-74
2023/03/20 01:59:27;;;;;;;14.43;5.32;;;;;;;13.81;100.00;101335.31;2098266;28;20045;-73
2023/03/20 02:00:49;;;;;;;15.60;5.88;;;;;;;13.81;100.00;101353.91;2109844;28;20575;-74
2023/03/20 02:02:15;;;;;;;12.50;5.05;;;;;;;13.80;100.00;101335.28;2097132;28;20888;-74
2023/03/20 02:03:38;;;;;;;16.10;4.97;;;;;;;13.79;100.00;101345.00;2090458;28;20131;-74
2023/03/20 02:05:05;;;;;;;14.70;5.50;;;;;;;13.79;100.00;101338.81;2106539;28;20063;-74
2023/03/20 02:06:28;;;;;;;13.05;4.95;;;;;;;13.77;100.00;101322.00;2094794;28;20049;-74
2023/03/20 02:08:10;;;;;;;14.63;4.90;;;;;;;13.73;100.00;101344.06;2110175;28;20051;-74
2023/03/20 02:09:32;;;;;;;17.27;5.43;;;;;;;13.70;100.00;101341.38;2087869;28;20049;-74
2023/03/20 02:10:57;;;;;;;13.52;4.85;;;;;;;13.69;100.00;101328.97;2098156;28;20640;-74
2023/03/20 02:12:22;;;;;;;15.15;5.63;;;;;;;13.64;100.00;101331.59;2089134;28;20445;-74
2023/03/20 02:13:45;;;;;;;;;;;;;;;13.56;100.00;101330.59;2086711;28;20037;-74
2023/03/20 02:15:07;;;;;;;14.40;5.82;;;;;;;13.54;100.00;101335.88;2089389;28;19967;-74
2023/03/20 02:16:46;;;;;;;12.15;5.95;;;;;;;13.50;100.00;101327.88;2094519;28;20119;-74
2023/03/20 02:18:16;;;;;;;11.65;5.40;;;;;;;13.47;100.00;101301.28;2084363;28;20044;-74
2023/03/20 02:19:51;;;;;;;13.48;5.25;;;;;;;13.45;100.00;101345.50;2105917;28;20067;-75
2023/03/20 02:21:46;;;;;;;13.27;4.78;;;;;;;13.39;100.00;101348.06;2084973;28;20041;-74
2023/03/20 02:23:56;;;;;;;21.70;5.85;;;;;;;13.35;100.00;101344.47;2088376;28;20512;-75
2023/03/20 02:25:58;;;;;;;15.80;5.82;;;;;;;13.28;100.00;101353.19;2103225;28;20400;-74
2023/03/20 02:27:29;;;;;;;14.10;4.78;;;;;;;13.26;100.00;101362.88;2105659;28;20044;-74
2023/03/20 02:29:28;;;;;;;14.93;5.30;;;;;;;13.26;100.00;101359.38;2100278;28;20040;-74
2023/03/20 02:31:06;;;;;;;16.05;5.63;;;;;;;13.25;100.00;101371.72;2086032;28;20045;-75
2023/03/20 02:33:16;;;;;;;11.30;5.43;;;;;;;13.28;100.00;101357.59;2096343;28;20543;-74
2023/03/20 02:35:14;;;;;;;14.13;6.18;;;;;;;13.28;100.00;101369.09;2083008;28;20144;-74
2023/03/20 02:36:58;;;;;;;12.52;5.50;;;;;;;13.31;100.00;101368.28;2087007;28;20528;-73
2023/03/20 02:38:47;;;;;;;16.15;5.80;;;;;;;13.33;100.00;101367.41;2101641;28;20051;-74
2023/03/20 02:40:21;;;;;;;17.25;6.53;;;;;;;13.35;100.00;101355.06;2092272;28;20190;-75
2023/03/20 02:41:51;;;;;;;13.65;5.68;;;;;;;13.42;100.00;101359.59;2109409;28;20055;-74
2023/03/20 02:43:21;;;;;;;14.38;6.07;;;;;;;13.45;100.00;101367.59;2088656;28;20088;-74
2023/03/20 02:44:57;;;;;;;15.43;5.30;;;;;;;13.46;100.00;101364.06;2086438;28;20571;-74
2023/03/20 02:46:33;;;;;;;13.55;5.22;;;;;;;13.46;100.00;101339.28;2111823;28;20130;-74
2023/03/20 02:48:07;;;;;;;12.48;4.88;;;;;;;13.46;100.00;101357.84;2081535;28;20111;-75
2023/03/20 02:49:45;;;;;;;17.27;6.22;;;;;;;13.46;100.00;101334.88;2104108;28;20036;-75
2023/03/20 02:51:16;;;;;;;17.38;5.50;;;;;;;13.49;100.00;101339.34;2095987;28;20059;-75
2023/03/20 02:52:46;;;;;;;15.88;6.10;;;;;;;13.52;100.00;101344.69;2089672;28;20044;-75
2023/03/20 02:54:18;;;;;;;15.35;5.28;;;;;;;13.54;100.00;101338.53;2094654;28;20564;-74
2023/03/20 02:55:45;;;;;;;12.93;5.60;;;;;;;13.55;100.00;101336.75;2105754;28;20435;-75
2023/03/20 02:57:15;;;;;;;16.25;5.68;;;;;;;13.56;100.00;101350.06;2087694;28;20521;-75
2023/03/20 02:58:44;;;;;;;10.48;4.80;;;;;;;13.59;100.00;101337.72;2082141;28;20037;-74
2023/03/20 03:00:11;;;;;;;13.57;4.72;;;;;;;13.64;100.00;101342.19;2102334;28;20492;-73
2023/03/20 03:01:42;;;;;;;13.52;4.88;;;;;;;13.67;100.00;101342.22;2105802;28;20777;-72
2023/03/20 03:03:10;;;;;;;9.82;4.53;;;;;;;13.71;100.00;101345.81;2087886;28;20351;-73
2023/03/20 03:04:38;;;;;;;11.05;5.25;;;;;;;13.74;100.00;101330.81;2076497;28;20051;-73
2023/03/20 03:06:05;;;;;;;17.23;5.80;;;;;;;13.79;100.00;101341.47;2081657;28;20078;-70
2023/03/20 03:07:32;;;;;;;17.00;5.78;;;;;;;13.80;100.00;101357.41;2084846;28;20436;-71
2023/03/20 03:09:01;;;;;;;15.57;6.32;;;;;;;13.82;100.00;101354.78;2105654;28;20047;-70
2023/03/20 03:10:29;;;;;;;10.98;5.00;;;;;;;13.86;100.00;101364.56;2089181;28;20090;-70
2023/03/20 03:11:56;;;;;;;14.00;5.88;;;;;;;13.87;100.00;101363.69;2100873;28;20047;-74
2023/03/20 03:13:24;;;;;;;11.77;5.32;;;;;;;13.90;100.00;101371.69;2084537;28;20600;-75
2023/03/20 03:14:48;;;;;;;14.75;5.38;;;;;;;13.90;100.00;101371.69;2093009;28;20044;-73
2023/03/20 03:16:16;;;;;;;16.05;5.80;;;;;;;13.93;100.00;101366.41;2080828;28;20049;-73
2023/03/20 03:17:43;;;;;;;13.90;6.15;;;;;;;13.93;100.00;101369.06;2101294;28;20150;-75
2023/03/20 03:19:08;;;;;;;13.00;5.68;;;;;;;13.95;100.00;101360.25;2079205;28;20053;-74
2023/03/20 03:20:34;;;;;;;11.82;5.25;;;;;;;13.96;100.00;101371.78;2100098;28;20134;-73
2023/03/20 03:21:56;;;;;;;13.77;5.70;;;;;;;13.96;100.00;101374.44;2097130;28;20048;-75
2023/03/20 03:23:26;;;;;;;11.25;5.53;;;;;;;13.97;100.00;101370.91;2094356;28;20048;-74
2023/03/20 03:24:51;;;;;;;13.45;6.13;;;;;;;13.98;100.00;101372.66;2101810;28;20474;-74
2023/03/20 03:26:20;;;;;;;14.05;5.85;;;;;;;13.98;100.00;101375.31;2088561;28;20077;-75
2023/03/20 03:27:45;;;;;;;13.63;5.78;;;;;;;13.98;100.00;101365.59;2086274;28;20060;-73
2023/03/20 03:29:12;;;;;;;15.85;5.75;;;;;;;13.98;100.00;101370.00;2100763;28;20476;-73
2023/03/20 03:30:39;;;;;;;16.58;6.70;;;;;;;13.98;100.00;101375.31;2089063;28;20111;-75
2023/03/20 03:32:02;;;;;;;14.40;5.85;;;;;;;14.00;100.00;101368.25;2101152;28;20048;-74
2023/03/20 03:33:28;;;;;;;12.40;5.47;;;;;;;14.00;100.00;101362.94;2105423;28;20036;-74
2023/03/20 03:34:50;;;;;;;12.20;5.82;;;;;;;14.00;100.00;101368.25;2105418;28;20059;-74
2023/03/20 03:36:22;;;;;;;13.00;5.28;;;;;;;14.01;100.00;101361.19;2092204;28;20527;-74
2023/03/20 03:37:55;;;;;;;15.70;5.75;;;;;;;14.00;100.00;101360.31;2114352;27;20055;-74
2023/03/20 03:39:25;;;;;;;12.90;5.90;;;;;;;14.01;100.00;101369.16;2089588;28;20045;-74
2023/03/20 03:40:57;;;;;;;13.70;5.93;;;;;;;14.02;100.00;101362.97;2090146;28;20041;-74
2023/03/20 03:42:29;;;;;;;16.57;6.43;;;;;;;14.01;100.00;101364.75;2095762;28;20041;-74
2023/03/20 03:44:01;;;;;;;11.65;5.25;;;;;;;14.02;100.00;101365.63;2105493;28;21015;-74
2023/03/20 03:45:31;;;;;;;15.48;6.25;;;;;;;14.01;100.00;101362.09;2081721;28;20114;-74
2023/03/20 03:46:56;;;;;;;13.85;5.88;;;;;;;14.02;100.00;101361.22;2078441;28;20061;-74
2023/03/20 03:48:22;;;;;;;13.38;5.55;;;;;;;14.02;100.00;101355.00;2079711;28;20071;-74
2023/03/20 03:49:47;;;;;;;11.52;5.40;;;;;;;14.02;100.00;101353.25;2086328;28;20103;-74
2023/03/20 03:51:14;;;;;;;15.80;6.20;;;;;;;14.03;100.00;101354.16;2085692;28;20049;-73
2023/03/20 03:52:52;;;;;;;16.52;6.45;;;;;;;14.04;100.00;101342.66;2087870;28;20047;-74
2023/03/20 03:54:17;;;;;;;15.85;5.18;;;;;;;14.04;100.00;101340.91;2085930;28;20061;-75
2023/03/20 03:55:52;;;;;;;15.10;5.90;;;;;;;14.03;100.00;101340.88;2085364;28;20064;-74
2023/03/20 03:57:19;;;;;;;11.30;5.03;;;;;;;14.00;100.00;101339.06;2093065;28;20051;-74
2023/03/20 03:58:48;;;;;;;12.55;5.45;;;;;;;13.98;100.00;101336.38;2101132;28;20569;-74
2023/03/20 04:00:16;;;;;;;10.55;5.38;;;;;;;13.96;100.00;101329.31;2087106;28;20056;-74
2023/03/20 04:01:43;;;;;;;16.80;6.20;;;;;;;13.94;100.00;101337.25;2084930;28;20064;-74
2023/03/20 04:03:07;;;;;;;13.43;5.88;;;;;;;13.95;100.00;101330.16;2083032;28;20037;-74
2023/03/20 04:04:31;;;;;;;15.13;5.55;;;;;;;13.94;100.00;101325.72;2089976;28;20048;-74
2023/03/20 04:06:01;;;;;;;12.57;6.03;;;;;;;13.93;100.00;101345.19;2112181;28;20036;-74
2023/03/20 04:07:28;;;;;;;11.05;5.18;;;;;;;13.95;100.00;101349.66;2089862;28;20078;-74
2023/03/20 04:08:50;;;;;;;15.10;5.95;;;;;;;13.93;100.00;101347.84;2109335;28;20036;-74
2023/03/20 04:10:13;;;;;;;20.13;6.32;;;;;;;13.92;100.00;101364.63;2080621;28;20193;-74
2023/03/20 04:11:35;;;;;;;16.25;5.90;;;;;;;13.88;100.00;101368.13;2088075;28;20055;-74
2023/03/20 04:12:58;;;;;;;18.40;6.25;;;;;;;13.89;100.00;101369.91;2093031;28;20045;-74
2023/03/20 04:14:21;;;;;;;17.88;6.43;;;;;;;13.91;100.00;101360.22;2079428;28;22001;-74
2023/03/20 04:15:43;;;;;;;16.02;6.07;;;;;;;13.91;100.00;101365.53;2094091;28;20147;-74
2023/03/20 04:17:05;;;;;;;14.90;6.35;;;;;;;13.90;100.00;101371.69;2088238;28;20033;-74
2023/03/20 04:18:28;;;;;;;15.93;6.75;;;;;;;13.91;100.00;101370.84;2096888;28;20055;-74
2023/03/20 04:19:49;;;;;;;22.25;6.13;;;;;;;13.92;100.00;101365.53;2089499;28;20131;-74
2023/03/20 04:21:14;;;;;;;12.05;5.80;;;;;;;13.94;100.00;101371.75;2083278;28;20052;-74
2023/03/20 04:22:37;;;;;;;13.40;6.00;;;;;;;13.98;100.00;101361.19;2107914;28;20143;-74
2023/03/20 04:24:05;;;;;;;21.77;7.65;;;;;;;13.98;100.00;101362.03;2090473;28;20489;-74
2023/03/20 04:25:26;;;;;;;16.30;6.95;;;;;;;13.95;100.00;101375.28;2115243;27;20553;-75
2023/03/20 04:26:51;;;;;;;17.25;7.10;;;;;;;13.93;100.00;101371.72;2090687;28;20570;-73
2023/03/20 04:28:15;;;;;;;21.88;7.60;;;;;;;13.94;100.00;101378.81;2085945;28;20401;-73
2023/03/20 04:30:01;;;;;;;14.18;6.57;;;;;;;13.94;100.00;101378.81;2095695;28;20421;-73
2023/03/20 04:31:41;;;;;;;;;;;;;;;13.87;100.00;101382.25;2097686;28;20139;-73
2023/03/20 04:33:33;;;;;;;13.05;6.53;;;;;;;13.86;100.00;101388.44;2104251;28;19920;-73
2023/03/20 04:35:19;;;;;;;14.98;7.20;;;;;;;13.86;100.00;101394.66;2096446;28;20060;-73
2023/03/20 04:36:45;;;;;;;18.05;6.60;;;;;;;13.88;100.00;101394.66;2094056;28;20144;-73
2023/03/20 04:38:08;;;;;;;13.25;6.15;;;;;;;13.90;100.00;101400.91;2087401;28;20048;-73
2023/03/20 04:39:31;;;;;;;21.13;7.28;;;;;;;13.90;100.00;101400.91;2074813;28;20049;-73
2023/03/20 04:40:54;;;;;;;17.55;6.47;;;;;;;13.89;100.00;101401.75;2085291;28;20044;-73
2023/03/20 04:42:15;;;;;;;15.02;6.65;;;;;;;13.87;100.00;101392.88;2087671;28;20524;-73
2023/03/20 04:43:39;;;;;;;14.60;6.10;;;;;;;13.84;100.00;101391.09;2077390;28;20063;-73
2023/03/20 04:45:02;;;;;;;16.27;6.65;;;;;;;13.87;100.00;101400.84;2079954;28;20135;-73
2023/03/20 04:46:25;;;;;;;16.38;6.65;;;;;;;13.89;100.00;101391.16;2083433;28;20056;-74
2023/03/20 04:47:47;;;;;;;16.08;6.95;;;;;;;13.93;100.00;101400.91;2085050;28;20052;-73
2023/03/20 04:49:10;;;;;;;13.98;6.35;;;;;;;13.95;100.00;101402.72;2091169;28;20068;-73
2023/03/20 04:50:32;;;;;;;14.02;6.22;;;;;;;13.98;100.00;101404.50;2089037;28;20109;-73
2023/03/20 04:51:57;;;;;;;12.93;6.60;;;;;;;13.98;100.00;101416.91;2090743;28;20836;-73
2023/03/20 04:53:32;;;;;;;13.70;6.25;;;;;;;13.98;100.00;101413.38;2094497;28;20154;-73
2023/03/20 04:54:55;;;;;;;16.25;6.40;;;;;;;13.99;100.00;101422.22;2087318;28;20448;-73
2023/03/20 04:56:17;;;;;;;14.13;6.15;;;;;;;13.99;100.00;101427.53;2082957;28;20549;-73
2023/03/20 04:57:41;;;;;;;13.45;6.30;;;;;;;14.00;100.00;101425.78;2085451;28;20056;-73
2023/03/20 04:59:06;;;;;;;15.35;6.82;;;;;;;14.00;100.00;101416.03;2101733;28;20060;-73
2023/03/20 05:00:30;;;;;;;14.93;6.55;;;;;;;14.04;100.00;101423.19;2086990;28;20131;-73
2023/03/20 05:01:51;;;;;;;14.98;6.53;;;;;;;14.06;100.00;101425.84;2107996;28;20146;-74
2023/03/20 05:03:17;;;;;;;14.02;6.78;;;;;;;14.10;100.00;101422.38;2088258;28;20128;-74
2023/03/20 05:04:39;;;;;;;13.25;6.78;;;;;;;14.13;100.00;101415.31;2098816;28;20052;-73
2023/03/20 05:06:02;;;;;;;12.02;6.03;;;;;;;14.15;100.00;101418.91;2087845;28;20044;-73
2023/03/20 05:07:24;;;;;;;15.40;6.90;;;;;;;14.13;100.00;101425.06;2077458;28;20144;-73
2023/03/20 05:08:52;;;;;;;12.80;6.07;;;;;;;14.11;100.00;101413.53;2092541;28;20113;-73
2023/03/20 05:10:15;;;;;;;13.57;6.18;;;;;;;14.08;100.00;101426.78;2086996;28;20291;-73
2023/03/20 05:11:48;;;;;;;14.30;6.65;;;;;;;14.07;100.00;101412.59;2103695;28;20059;-73
2023/03/20 05:13:33;;;;;;;12.15;5.10;;;;;;;14.04;100.00;101431.16;2094287;28;20524;-72
2023/03/20 05:15:33;;;;;;;13.32;5.97;;;;;;;14.01;100.00;101422.25;2082740;28;20420;-72
2023/03/20 05:17:14;;;;;;;14.80;6.13;;;;;;;13.98;100.00;101432.84;2071781;28;20056;-72
2023/03/20 05:19:00;;;;;;;10.85;5.50;;;;;;;13.96;100.00;101431.06;2071602;28;20465;-73
2023/03/20 05:20:40;;;;;;;11.45;5.38;;;;;;;13.94;100.00;101423.94;2104429;28;20109;-73
2023/03/20 05:22:23;;;;;;;;;;;;;;;13.85;100.00;101423.81;2092455;28;20049;-73
2023/03/20 05:24:07;;;;;;;13.35;6.60;;;;;;;13.85;100.00;101426.47;2096209;28;19924;-73
2023/03/20 05:25:48;;;;;;;13.13;5.97;;;;;;;13.84;100.00;101438.88;2112223;28;20043;-73
2023/03/20 05:27:19;;;;;;;18.20;6.50;;;;;;;13.85;100.00;101453.91;2097759;28;20467;-73
2023/03/20 05:29:00;;;;;;;14.88;6.13;;;;;;;13.86;100.00;101453.03;2118822;28;20046;-73
2023/03/20 05:30:48;;;;;;;20.98;6.82;;;;;;;13.87;100.00;101456.59;2069765;28;20120;-72
2023/03/20 05:32:30;;;;;;;13.82;6.40;;;;;;;13.88;100.00;101450.41;2082533;28;20123;-73
2023/03/20 05:34:22;;;;;;;17.25;6.40;;;;;;;13.91;100.00;101458.44;2089919;28;20497;-73
2023/03/20 05:36:02;;;;;;;14.90;6.22;;;;;;;13.95;100.00;101453.16;2104113;28;20521;-73
2023/03/20 05:37:45;;;;;;;21.42;7.10;;;;;;;14.03;100.00;101463.00;2085461;28;20378;-73
2023/03/20 05:39:28;;;;;;;17.38;6.03;;;;;;;14.14;100.00;101462.25;2088455;28;20053;-73
2023/03/20 05:41:09;;;;;;;11.63;5.80;;;;;;;14.24;100.00;101468.56;2093812;28;20079;-73
2023/03/20 05:42:52;;;;;;;18.67;6.53;;;;;;;14.30;100.00;101464.22;2087965;28;20098;-73
2023/03/20 05:44:15;;;;;;;14.77;6.13;;;;;;;14.38;100.00;101464.31;2110187;28;20040;-73
2023/03/20 05:45:59;;;;;;;18.13;6.35;;;;;;;14.41;100.00;101467.03;2100034;28;20122;-73
2023/03/20 05:47:40;;;;;;;16.27;6.55;;;;;;;14.41;100.00;101466.13;2094576;28;20110;-73
2023/03/20 05:49:21;;;;;;;20.77;6.60;;;;;;;14.42;100.00;101474.13;2112930;28;20056;-73
2023/03/20 05:51:01;;;;;;;18.10;6.68;;;;;;;14.46;100.00;101462.66;2101668;28;20044;-73
2023/03/20 05:52:38;;;;;;;13.50;6.25;;;;;;;14.52;100.00;101454.75;2086849;28;20136;-73
2023/03/20 05:54:20;;;;;;;13.95;5.38;;;;;;;14.55;100.00;101469.84;2096117;28;20555;-73
2023/03/20 05:56:03;;;;;;;11.13;6.20;;;;;;;14.56;100.00;101468.97;2092851;28;20033;-73
2023/03/20 05:57:35;;;;;;;15.68;6.68;;;;;;;14.61;100.00;101478.78;2105520;28;20047;-73
2023/03/20 05:59:15;;;;;;;12.43;6.22;;;;;;;14.66;100.00;101474.38;2094124;28;20143;-73
2023/03/20 06:01:00;;;;;;;11.90;6.10;;;;;;;14.72;100.00;101477.09;2073123;28;20053;-73
2023/03/20 06:02:40;;;;;;;;;;;;;;;14.70;100.00;101484.16;2104670;28;20467;-73
2023/03/20 06:04:23;;;;;;;13.77;5.45;;;;;;;14.79;100.00;101475.41;2096650;28;19921;-73
2023/03/20 06:06:10;;;;;;;12.77;5.65;;;;;;;14.83;100.00;101486.97;2097850;28;20459;-73
2023/03/20 06:07:31;;;;;;;16.42;5.50;;;;;;;14.88;100.00;101479.91;2101344;28;20131;-73
2023/03/20 06:09:01;;;;;;;13.15;5.88;;;;;;;14.92;100.00;101487.03;2100531;28;20094;-73
2023/03/20 06:10:26;;;;;;;19.02;5.65;;;;;;;14.97;100.00;101479.97;2096664;28;20044;-73
2023/03/20 06:11:49;;;;;;;14.23;5.47;;;;;;;15.00;100.00;101464.97;2085019;28;20052;-73
2023/03/20 06:13:13;;;;;;;13.90;5.10;;;;;;;15.04;100.00;101473.84;2086633;28;20059;-73
2023/03/20 06:14:36;;;;;;;11.55;4.70;;;;;;;15.10;100.00;101482.78;2103380;28;20048;-73
2023/03/20 06:16:05;;;;;;;13.65;5.18;;;;;;;15.20;100.00;101466.91;2093173;28;20167;-73
2023/03/20 06:17:27;;;;;;;15.02;5.80;;;;;;;15.26;100.00;101480.25;2104705;28;20075;-73
2023/03/20 06:18:57;;;;;;;16.35;6.85;;;;;;;15.31;100.00;101473.19;2090773;28;20148;-73
2023/03/20 06:20:18;;;;;;;15.48;7.38;;;;;;;15.34;100.00;101473.22;2092488;28;20047;-73
2023/03/20 06:21:41;;;;;;;12.60;6.40;;;;;;;15.35;100.00;101478.56;2094439;28;20052;-73
2023/03/20 06:23:08;;;;;;;36.50;14.10;;;;;;;15.34;100.00;101470.56;2095983;28;20481;-73
2023/03/20 06:24:31;;;;;;;62.90;21.52;;;;;;;15.34;100.00;101476.78;2081249;28;20053;-73
2023/03/20 06:25:54;;;;;;;14.25;6.57;;;;;;;15.32;100.00;101472.31;2089405;28;20043;-73
2023/03/20 06:27:18;;;;;;;13.15;7.03;;;;;;;15.28;100.00;101481.16;2103090;28;20036;-73
2023/03/20 06:28:43;;;;;;;14.70;8.57;;;;;;;15.24;100.00;101484.66;2090323;28;20041;-73
2023/03/20 06:30:08;;;;;;;19.63;10.38;;;;;;;15.22;100.00;101483.78;2083954;28;20048;-73
2023/03/20 06:31:33;;;;;;;14.85;8.50;;;;;;;15.25;100.00;101489.09;2084641;28;20425;-73
2023/03/20 06:32:57;;;;;;;19.80;8.82;;;;;;;15.25;100.00;101489.09;2090862;28;20097;-73
2023/03/20 06:34:27;;;;;;;19.27;9.68;;;;;;;15.26;100.00;101486.47;2089390;28;20041;-73
2023/03/20 06:35:49;;;;;;;20.52;10.27;;;;;;;15.26;100.00;101496.22;2094933;28;20049;-73
2023/03/20 06:37:12;;;;;;;16.55;9.13;;;;;;;15.26;100.00;101493.56;2094997;28;20396;-71
2023/03/20 06:38:35;;;;;;;18.80;8.35;;;;;;;15.25;100.00;101497.09;2101006;28;20492;-71
2023/03/20 06:40:04;;;;;;;14.15;8.77;;;;;;;15.31;100.00;101481.16;2090870;28;20071;-71
2023/03/20 06:41:26;;;;;;;31.88;15.57;;;;;;;15.41;100.00;101483.94;2101451;28;20051;-71
2023/03/20 06:42:49;;;;;;;23.40;11.55;;;;;;;15.59;100.00;101480.53;2090179;28;20738;-71
2023/03/20 06:44:12;;;;;;;14.15;7.40;;;;;;;15.98;100.00;101481.66;2084290;28;20053;-72